Time;durP1;ratioP1;P1;durP2;ratioP2;P2;SDS_P1;SDS_P2;PMS_P1;PMS_P2;Temp;Humidity;BMP_temperature;BMP_pressure;BME280_temperature;BME280_humidity;BME280_pressure;Samples;Min_cycle;Max_cycle;Signal;HPM_P1;HPM_P2
2022/05/16 10:33:29;;;;;;;5.47;2.00;;;25.00;99.90;;;;;;5054639;27;20914;-52
2022/05/16 10:38:28;;;;;;;2.88;1.48;;;26.60;94.50;;;;;;5043311;28;21182;-40
2022/05/16 10:42:17;;;;;;;2.97;1.83;;;28.50;88.40;;;;;;5082868;27;21123;-44
2022/05/16 10:45:53;;;;;;;1.90;1.35;;;28.20;76.30;;;;;;5059320;28;20494;-54
2022/05/16 10:48:39;;;;;;;1.48;1.25;;;26.30;79.10;;;;;;5059788;28;20204;-51
2022/05/16 10:51:31;;;;;;;1.83;1.20;;;24.90;82.80;;;;;;5059982;28;20204;-52
2022/05/16 10:54:07;;;;;;;2.05;1.30;;;23.70;87.00;;;;;;5059456;28;20213;-48
2022/05/16 10:57:06;;;;;;;1.58;0.95;;;22.90;90.60;;;;;;5059314;28;20706;-56
2022/05/16 10:59:47;;;;;;;1.45;1.10;;;22.40;92.10;;;;;;5059514;28;20292;-50
2022/05/16 11:02:35;;;;;;;2.17;0.98;;;22.20;93.30;;;;;;5060226;28;20182;-53
2022/05/16 11:05:25;;;;;;;1.27;0.93;;;22.10;93.90;;;;;;5059390;28;20197;-49
2022/05/16 11:07:59;;;;;;;1.75;1.00;;;22.00;94.60;;;;;;5059559;28;20456;-54
2022/05/16 11:10:31;;;;;;;3.78;1.05;;;21.80;95.20;;;;;;5059620;28;20184;-51
2022/05/16 11:13:20;;;;;;;2.60;1.25;;;21.70;95.50;;;;;;5059430;28;20268;-57
2022/05/16 11:15:54;;;;;;;2.35;1.02;;;21.80;95.90;;;;;;5059058;28;20227;-54
2022/05/16 11:18:45;;;;;;;1.70;1.10;;;21.80;96.20;;;;;;5059579;28;20625;-49
2022/05/16 11:21:27;;;;;;;2.20;1.20;;;21.90;96.20;;;;;;5059368;28;20180;-48
2022/05/16 11:24:17;;;;;;;5.00;1.75;;;21.80;96.40;;;;;;5059274;28;20444;-48
2022/05/16 11:27:14;;;;;;;2.60;0.98;;;21.70;96.60;;;;;;5059233;28;20698;-47
2022/05/16 11:30:10;;;;;;;1.30;1.13;;;21.70;97.00;;;;;;5046656;28;20364;-58
2022/05/16 11:33:17;;;;;;;2.05;1.10;;;21.60;97.30;;;;;;5059623;28;20239;-55
2022/05/16 11:35:45;;;;;;;1.85;1.00;;;21.50;97.70;;;;;;5059241;28;20177;-53
2022/05/16 11:38:33;;;;;;;26.75;2.40;;;21.40;97.90;;;;;;5059856;28;20319;-57
2022/05/16 11:41:33;;;;;;;2.25;1.17;;;21.80;99.90;;;;;;5059076;28;20631;-58
2022/05/16 11:44:42;;;;;;;2.00;1.30;;;22.40;99.50;;;;;;5058898;28;20209;-58
2022/05/16 11:47:13;;;;;;;4.78;1.67;;;22.40;98.60;;;;;;5008542;28;20240;-56
2022/05/16 11:49:48;;;;;;;1.55;0.80;;;22.20;98.50;;;;;;5058933;28;20238;-58
2022/05/16 11:52:27;;;;;;;1.27;1.10;;;22.10;98.70;;;;;;5058911;28;20669;-59
2022/05/16 12:00:31;;;;;;;1.60;1.20;;;21.90;99.00;;;;;;5058035;28;20186;-59
2022/05/16 12:00:50;;;;;;;1.38;1.00;;;21.70;99.60;;;;;;5045697;28;20236;-58
2022/05/16 12:07:35;;;;;;;4.20;1.85;;;22.60;99.30;;;;;;5095293;27;20531;-69
2022/05/16 12:11:04;;;;;;;2.28;1.63;;;24.10;97.40;;;;;;5043780;28;20735;-73
2022/05/16 12:13:35;;;;;;;3.40;1.70;;;25.50;95.20;;;;;;5042956;28;20206;-73
2022/05/16 12:16:16;;;;;;;5.53;2.13;;;26.00;91.50;;;;;;5042448;28;20228;-75
2022/05/16 12:18:48;;;;;;;2.85;1.70;;;26.30;90.60;;;;;;5037484;28;20241;-71
2022/05/16 12:21:33;;;;;;;2.33;1.50;;;26.40;90.20;;;;;;5041874;28;20193;-72
2022/05/16 12:24:02;;;;;;;2.65;1.75;;;26.60;89.10;;;;;;5042699;28;20184;-74
2022/05/16 12:26:28;;;;;;;7.15;1.98;;;26.70;88.80;;;;;;5039705;28;20543;-74
2022/05/16 12:29:09;;;;;;;5.93;2.17;;;26.70;88.20;;;;;;5040257;28;20209;-72
2022/05/16 12:31:49;;;;;;;4.25;2.05;;;27.00;88.00;;;;;;5040493;28;20217;-73
2022/05/16 12:34:31;;;;;;;3.22;1.92;;;27.00;85.90;;;;;;5040230;28;20183;-72
2022/05/16 12:36:59;;;;;;;2.63;2.00;;;27.00;87.70;;;;;;5040661;28;20197;-71
2022/05/16 12:39:37;;;;;;;3.95;1.90;;;27.00;87.00;;;;;;5039177;28;20179;-73
2022/05/16 12:42:40;;;;;;;4.05;2.17;;;27.00;86.20;;;;;;5038898;28;20201;-74
2022/05/16 12:45:39;;;;;;;3.13;1.83;;;27.20;86.40;;;;;;5035567;28;20181;-74
2022/05/16 12:48:39;;;;;;;4.72;1.77;;;27.30;85.90;;;;;;5036994;28;20209;-74
2022/05/16 12:51:08;;;;;;;3.10;2.05;;;27.40;83.40;;;;;;5056364;28;20274;-73
2022/05/16 12:54:04;;;;;;;2.72;1.88;;;27.20;82.60;;;;;;5040874;28;20206;-75
2022/05/16 12:56:57;;;;;;;3.05;1.98;;;27.20;85.10;;;;;;5038749;28;20182;-74
2022/05/16 12:59:53;;;;;;;3.75;1.88;;;27.00;83.20;;;;;;5039998;28;20190;-75
2022/05/16 13:02:32;;;;;;;2.75;1.65;;;26.90;84.10;;;;;;5040043;28;20552;-74
2022/05/16 13:05:20;;;;;;;3.70;2.88;;;26.80;83.60;;;;;;5040346;28;20182;-75
2022/05/16 13:08:25;;;;;;;9.75;2.08;;;26.70;84.70;;;;;;5041451;28;20240;-74
2022/05/16 13:10:59;;;;;;;3.13;1.80;;;26.60;86.10;;;;;;5041289;28;20640;-74
2022/05/16 13:13:57;;;;;;;2.72;1.85;;;26.60;85.30;;;;;;5041180;28;20178;-74
2022/05/16 13:16:32;;;;;;;3.67;2.25;;;26.40;85.70;;;;;;5030666;28;20252;-73
2022/05/16 13:19:00;;;;;;;4.68;2.00;;;26.60;86.40;;;;;;5040817;28;20200;-76
2022/05/16 13:21:40;;;;;;;4.10;1.80;;;26.60;88.00;;;;;;5031634;28;20183;-74
2022/05/16 13:24:18;;;;;;;4.65;2.33;;;26.60;88.00;;;;;;5026906;28;20178;-75
2022/05/16 13:29:34;;;;;;;3.00;1.85;;;26.20;91.70;;;;;;5027025;28;20245;-74
2022/05/16 13:32:09;;;;;;;2.35;2.15;;;26.10;90.90;;;;;;5027198;28;20170;-75
2022/05/16 13:34:36;;;;;;;3.55;2.10;;;26.40;91.00;;;;;;5026432;28;20175;-73
2022/05/16 13:37:07;;;;;;;4.13;2.20;;;26.20;90.80;;;;;;5026304;28;20233;-72
2022/05/16 13:39:57;;;;;;;3.30;2.10;;;26.30;91.30;;;;;;5026574;28;20548;-73
2022/05/16 13:42:23;;;;;;;4.32;2.13;;;26.30;91.70;;;;;;5026997;28;20186;-72
2022/05/16 13:44:51;;;;;;;6.38;2.10;;;;;;;;;;5025342;28;20670;-71
2022/05/16 13:47:21;;;;;;;2.83;2.10;;;;;;;;;;5026847;28;20257;-71
2022/05/16 13:49:48;;;;;;;4.97;2.75;;;;;;;;;;5026660;28;20692;-71
2022/05/16 13:52:17;;;;;;;4.28;2.05;;;;;;;;;;5026963;28;20254;-71
2022/05/16 13:54:43;;;;;;;4.40;2.13;;;;;;;;;;5026590;28;20186;-71
2022/05/16 13:57:12;;;;;;;3.33;2.00;;;;;;;;;;5025994;28;20194;-72
2022/05/16 13:59:38;;;;;;;4.78;2.05;;;;;;;;;;5026628;28;20244;-71
2022/05/16 14:02:08;;;;;;;2.38;2.00;;;;;;;;;;5026626;28;20183;-72
2022/05/16 14:04:55;;;;;;;4.25;2.50;;;;;;;;;;5025987;28;20183;-72
2022/05/16 14:07:25;;;;;;;3.45;2.45;;;;;;;;;;5026197;28;20203;-71
2022/05/16 14:09:54;;;;;;;3.03;2.60;;;;;;;;;;5025864;28;20646;-71
2022/05/16 14:12:46;;;;;;;4.32;2.28;;;;;;;;;;5026652;28;20193;-72
2022/05/16 14:15:27;;;;;;;4.28;2.50;;;;;;;;;;5025233;28;20190;-71
2022/05/16 14:18:02;;;;;;;3.28;2.50;;;;;;;;;;5026394;28;20680;-70
2022/05/16 14:20:36;;;;;;;5.53;2.53;;;;;;;;;;5025976;28;20222;-70
2022/05/16 14:23:13;;;;;;;3.72;2.90;;;;;;;;;;5026137;28;20188;-71
2022/05/16 14:25:40;;;;;;;3.03;2.30;;;;;;;;;;5025174;28;20182;-71
2022/05/16 14:28:15;;;;;;;3.53;2.35;;;;;;;;;;5025107;28;20900;-70
2022/05/16 14:30:49;;;;;;;4.38;2.85;;;;;;;;;;5026133;28;20210;-70
2022/05/16 14:33:16;;;;;;;3.90;2.50;;;;;;;;;;5024871;28;20183;-71
2022/05/16 14:35:42;;;;;;;2.92;2.70;;;;;;;;;;5027796;28;20209;-71
2022/05/16 14:38:12;;;;;;;7.55;3.67;;;;;;;;;;5026576;28;20252;-71
2022/05/16 14:40:41;;;;;;;3.53;2.50;;;;;;;;;;5025606;28;21058;-72
2022/05/16 14:43:09;;;;;;;4.03;2.63;;;;;;;;;;5025906;28;20638;-72
2022/05/16 14:48:37;;;;;;;3.10;2.80;;;;;;;;;;5025519;28;20221;-71
2022/05/16 14:51:11;;;;;;;6.80;3.45;;;;;;;;;;5025487;28;20237;-73
2022/05/16 14:53:38;;;;;;;4.22;3.17;;;;;;;;;;5025526;28;20178;-71
2022/05/16 14:56:04;;;;;;;4.63;2.58;;;;;;;;;;5024838;28;20217;-71
2022/05/16 14:58:31;;;;;;;3.75;2.97;;;;;;;;;;5025673;28;20202;-71
2022/05/16 15:06:27;;;;;;;3.00;2.70;;;;;;;;;;5024456;28;20233;-70
2022/05/16 15:08:55;;;;;;;3.33;2.83;;;;;;;;;;5025152;28;20293;-70
2022/05/16 15:11:23;;;;;;;4.72;3.55;;;;;;;;;;5025413;28;20642;-70
2022/05/16 15:13:50;;;;;;;4.13;2.80;;;;;;;;;;5026027;28;20245;-70
2022/05/16 15:16:17;;;;;;;8.63;4.40;;;;;;;;;;5024362;28;20232;-70
2022/05/16 15:18:43;;;;;;;4.55;3.35;;;;;;;;;;5022384;28;20675;-70
2022/05/16 15:21:09;;;;;;;3.45;2.70;;;;;;;;;;5025296;28;20642;-70
2022/05/16 15:23:36;;;;;;;5.15;3.30;;;;;;;;;;5025399;28;20270;-71
2022/05/16 15:26:02;;;;;;;4.10;3.20;;;;;;;;;;5024271;28;20186;-69
2022/05/16 15:28:28;;;;;;;4.43;2.97;;;;;;;;;;5024849;28;20198;-71
2022/05/16 15:30:55;;;;;;;5.75;3.20;;;;;;;;;;5024630;28;20245;-69
2022/05/16 15:33:21;;;;;;;6.72;3.95;;;;;;;;;;5025464;28;20232;-70
2022/05/16 15:35:49;;;;;;;5.53;3.40;;;;;;;;;;5023770;28;20269;-70
2022/05/16 15:38:15;;;;;;;5.47;3.40;;;;;;;;;;5025060;28;20198;-70
2022/05/16 15:40:42;;;;;;;5.03;3.33;;;;;;;;;;5024995;28;20218;-70
2022/05/16 15:43:09;;;;;;;3.78;3.17;;;;;;;;;;5024930;28;20190;-70
2022/05/16 15:45:38;;;;;;;3.97;3.38;;;;;;;;;;5023465;28;20183;-70
2022/05/16 15:48:05;;;;;;;4.47;3.28;;;;;;;;;;5025227;28;20202;-70
2022/05/16 15:50:32;;;;;;;4.65;3.15;;;;;;;;;;5024398;28;20202;-69
2022/05/16 15:52:58;;;;;;;4.72;3.63;;;;;;;;;;5024847;28;20190;-70
2022/05/16 15:55:24;;;;;;;4.47;3.30;;;;;;;;;;5023759;28;20221;-69
2022/05/16 15:57:51;;;;;;;9.60;4.57;;;;;;;;;;5025010;28;20211;-70
2022/05/16 16:00:19;;;;;;;5.30;4.05;;;;;;;;;;5024353;28;20178;-70
2022/05/16 16:02:47;;;;;;;5.05;3.80;;;;;;;;;;5025157;28;20194;-69
2022/05/16 16:10:49;;;;;;;4.43;3.33;;;;;;;;;;5024548;28;20210;-69
2022/05/16 16:13:16;;;;;;;4.22;2.65;;;;;;;;;;5024855;28;20638;-70
2022/05/16 16:15:42;;;;;;;5.53;3.97;;;;;;;;;;5023741;28;20191;-70
2022/05/16 16:18:09;;;;;;;4.90;4.25;;;;;;;;;;5024800;28;20203;-69
2022/05/16 16:20:37;;;;;;;8.35;4.60;;;;;;;;;;5024169;28;20194;-70
2022/05/16 16:23:04;;;;;;;6.43;4.75;;;;;;;;;;5024882;28;20618;-68
2022/05/16 16:25:34;;;;;;;9.63;7.43;;;;;;;;;;5023411;28;20270;-69
2022/05/16 16:28:01;;;;;;;5.78;4.75;;;;;;;;;;5024633;28;20517;-69
2022/05/16 16:30:27;;;;;;;7.00;4.57;;;;;;;;;;5024000;28;20207;-69
2022/05/16 16:32:53;;;;;;;9.48;6.68;;;;;;;;;;5024940;28;20175;-69
2022/05/16 16:35:20;;;;;;;8.82;5.60;;;;;;;;;;5023600;28;20179;-69
2022/05/16 16:37:46;;;;;;;9.30;5.68;;;;;;;;;;5024763;28;20207;-70
2022/05/16 16:40:13;;;;;;;6.38;4.93;;;;;;;;;;5024149;28;20214;-69
2022/05/16 16:42:41;;;;;;;5.85;3.80;;;;;;;;;;5024774;28;20713;-69
2022/05/16 16:45:08;;;;;;;4.90;3.80;;;;;;;;;;5023326;28;20267;-70
2022/05/16 16:47:37;;;;;;;3.92;3.42;;;;;;;;;;5024200;28;20692;-69
2022/05/16 16:50:05;;;;;;;5.68;3.67;;;;;;;;;;5023927;28;20201;-71
2022/05/16 16:58:00;;;;;;;5.45;3.70;;;;;;;;;;5026871;28;20400;-72
2022/05/16 17:00:26;;;;;;;7.57;4.32;;;;;;;;;;5027809;28;20179;-73
2022/05/16 17:02:54;;;;;;;4.78;3.30;;;;;;;;;;5028645;28;20187;-73
2022/05/16 17:05:20;;;;;;;4.82;3.97;;;;;;;;;;5026727;28;20186;-72
2022/05/16 17:07:49;;;;;;;8.95;4.97;;;;;;;;;;5026374;28;20257;-72
2022/05/16 17:10:18;;;;;;;7.03;4.70;;;;;;;;;;5027169;28;20578;-72
2022/05/16 17:12:45;;;;;;;5.57;4.25;;;;;;;;;;5028382;28;20209;-72
2022/05/16 17:15:11;;;;;;;5.18;4.18;;;;;;;;;;5026988;28;20194;-72
2022/05/16 17:17:37;;;;;;;5.22;4.38;;;;;;;;;;5027904;28;20213;-73
2022/05/16 17:20:05;;;;;;;4.90;4.32;;;;;;;;;;5027340;28;20187;-71
2022/05/16 17:22:31;;;;;;;5.22;4.03;;;;;;;;;;5027509;28;20272;-72
2022/05/16 17:24:58;;;;;;;4.43;3.80;;;;;;;;;;5026478;28;20306;-71
2022/05/16 17:27:24;;;;;;;5.65;3.83;;;;;;;;;;5027168;28;20700;-72
2022/05/16 17:29:50;;;;;;;5.00;4.40;;;;;;;;;;5027296;28;20246;-73
2022/05/16 17:32:17;;;;;;;4.40;3.80;;;;;;;;;;5027454;28;20175;-72
2022/05/16 17:34:43;;;;;;;6.10;4.13;;;;;;;;;;5027458;28;20251;-72
2022/05/16 17:37:10;;;;;;;6.80;4.15;;;;;;;;;;5026625;28;20191;-73
2022/05/16 17:39:36;;;;;;;7.20;5.03;;;;;;;;;;5027825;28;20175;-72
2022/05/16 17:42:03;;;;;;;6.80;5.28;;;;;;;;;;5027079;28;20182;-72
2022/05/16 17:44:30;;;;;;;5.07;4.57;;;;;;;;;;5026787;28;20203;-71
2022/05/16 17:46:56;;;;;;;5.35;4.47;;;;;;;;;;5026316;28;20225;-72
2022/05/16 17:49:22;;;;;;;7.15;5.00;;;;;;;;;;5026742;28;20226;-72
2022/05/16 17:51:50;;;;;;;4.78;3.92;;;;;;;;;;5027449;28;20179;-72
2022/05/16 17:54:18;;;;;;;4.00;3.60;;;;;;;;;;5027084;28;20179;-72
2022/05/16 17:56:44;;;;;;;4.75;4.25;;;;;;;;;;5026014;28;20203;-72
2022/05/16 17:59:10;;;;;;;4.43;4.00;;;;;;;;;;5027103;28;20706;-73
2022/05/16 18:01:37;;;;;;;7.15;4.57;;;;;;;;;;5022662;28;20558;-72
2022/05/16 18:04:06;;;;;;;7.15;4.72;;;;;;;;;;5026529;28;20175;-72
2022/05/16 18:06:32;;;;;;;8.15;5.85;;;;;;;;;;5025184;28;20525;-73
2022/05/16 18:08:58;;;;;;;6.32;5.75;;;;;;;;;;5026839;28;20699;-72
2022/05/16 18:14:12;;;;;;;6.60;5.82;;;;;;;;;;5026616;28;20213;-73
2022/05/16 18:16:39;;;;;;;7.97;5.60;;;;;;;;;;5025861;28;20215;-72
2022/05/16 18:19:05;;;;;;;6.18;5.57;;;;;;;;;;5026237;28;20175;-72
2022/05/16 18:21:32;;;;;;;6.32;5.18;;;;;;;;;;5026193;28;20602;-73
2022/05/16 18:23:58;;;;;;;8.50;5.97;;;;;;;;;;5026839;28;20214;-72
2022/05/16 18:26:24;;;;;;;10.55;5.65;;;;;;;;;;5025554;28;20186;-73
2022/05/16 18:28:51;;;;;;;5.57;5.05;;;;;;;;;;5023041;28;20179;-72
2022/05/16 18:31:17;;;;;;;8.30;5.80;;;;;;;;;;5023966;28;20178;-74
2022/05/16 18:33:43;;;;;;;6.90;6.15;;;;;;;;;;5024593;28;20178;-72
2022/05/16 18:36:10;;;;;;;6.43;5.35;;;;;;;;;;5023610;28;20183;-73
2022/05/16 18:38:37;;;;;;;6.95;5.97;;;;;;;;;;5024415;28;20222;-73
2022/05/16 18:41:03;;;;;;;8.85;5.85;;;;;;;;;;5022808;28;20182;-72
2022/05/16 18:51:44;;;;;;;7.38;5.72;;;;;;;;;;5024709;28;20189;-73
2022/05/16 18:54:11;;;;;;;6.30;5.70;;;;;;;;;;5024508;28;20226;-72
2022/05/16 18:56:38;;;;;;;6.47;5.75;;;;;;;;;;5024412;28;20227;-72
2022/05/16 18:59:05;;;;;;;5.97;5.00;;;;;;;;;;5024778;28;20179;-73
2022/05/16 19:01:34;;;;;;;6.65;5.00;;;;;;;;;;5024202;28;20889;-73
2022/05/16 19:04:00;;;;;;;6.00;4.00;;;;;;;;;;5024680;28;20952;-72
2022/05/16 19:06:27;;;;;;;6.35;4.43;;;;;;;;;;5023198;28;20650;-73
2022/05/16 19:08:53;;;;;;;6.80;4.78;;;;;;;;;;5025147;28;20230;-73
2022/05/16 19:11:28;;;;;;;4.65;4.05;;;;;;;;;;5023567;28;20214;-72
2022/05/16 19:13:54;;;;;;;5.70;5.20;;;;;;;;;;5021837;28;20630;-73
2022/05/16 19:16:20;;;;;;;5.40;4.90;;;;;;;;;;5021844;28;20175;-73
2022/05/16 19:18:46;;;;;;;5.75;4.60;;;;;;;;;;5023172;28;20619;-72
2022/05/16 19:21:15;;;;;;;7.72;6.25;;;;;;;;;;5022541;28;20289;-73
2022/05/16 19:23:41;;;;;;;8.77;6.95;;;;;;;;;;5023181;28;20230;-72
2022/05/16 19:26:09;;;;;;;8.00;6.97;;;;;;;;;;5021692;28;20190;-72
2022/05/16 19:34:05;;;;;;;7.20;5.55;;;;;;;;;;5022687;28;20194;-72
2022/05/16 19:36:31;;;;;;;7.03;6.32;;;;;;;;;;5021362;28;20186;-72
2022/05/16 19:39:00;;;;;;;5.85;5.15;;;;;;;;;;5023205;28;20190;-73
2022/05/16 19:41:27;;;;;;;5.72;5.18;;;;;;;;;;5022377;28;20178;-74
2022/05/16 19:43:53;;;;;;;6.00;5.50;;;;;;;;;;5022717;28;20175;-74
2022/05/16 19:46:20;;;;;;;6.32;5.82;;;;;;;;;;5020591;28;20598;-74
2022/05/16 19:48:47;;;;;;;6.25;4.75;;;;;;;;;;5022316;28;20191;-72
2022/05/16 19:51:14;;;;;;;7.28;5.50;;;;;;;;;;5021578;28;20175;-73
2022/05/16 19:53:42;;;;;;;5.57;5.07;;;;;;;;;;5021298;28;20218;-72
2022/05/16 19:56:09;;;;;;;5.03;4.35;;;;;;;;;;5021007;28;20194;-72
2022/05/16 19:58:36;;;;;;;7.07;5.18;;;;;;;;;;5022147;28;20203;-73
2022/05/16 20:01:03;;;;;;;6.25;5.68;;;;;;;;;;5022617;28;20175;-72
2022/05/16 20:03:29;;;;;;;6.53;5.72;;;;;;;;;;5021999;28;20183;-72
2022/05/16 20:05:55;;;;;;;6.53;5.93;;;;;;;;;;5021292;28;20638;-74
2022/05/16 20:08:21;;;;;;;4.93;4.38;;;;;;;;;;5022358;28;20213;-73
2022/05/16 20:10:48;;;;;;;7.18;5.15;;;;;;;;;;5021785;28;20829;-72
2022/05/16 20:13:15;;;;;;;7.63;5.80;;;;;;;;;;5022026;28;20226;-73
2022/05/16 20:15:41;;;;;;;5.20;4.70;;;;;;;;;;5020973;28;20682;-72
2022/05/16 20:18:07;;;;;;;5.53;4.97;;;;;;;;;;5022194;28;20233;-72
2022/05/16 20:20:33;;;;;;;7.63;5.45;;;;;;;;;;5022114;28;20540;-73
2022/05/16 20:25:45;;;;;;;6.57;6.00;;;;;;;;;;5021662;28;20197;-72
2022/05/16 20:28:17;;;;;;;8.63;7.72;;;;;;;;;;5022108;28;20203;-72
2022/05/16 20:30:44;;;;;;;7.95;6.82;;;;;;;;;;5022734;28;20763;-73
2022/05/16 20:33:10;;;;;;;7.90;6.28;;;;;;;;;;5027693;28;20578;-72
2022/05/16 20:35:38;;;;;;;8.20;6.93;;;;;;;;;;5025227;28;20262;-73
2022/05/16 20:38:04;;;;;;;7.90;7.03;;;;;;;;;;5026598;28;20199;-72
2022/05/16 20:40:33;;;;;;;6.45;5.88;;;;;;;;;;5027074;28;20190;-72
2022/05/16 20:43:00;;;;;;;7.28;6.57;;;;;;;;;;5024932;28;20190;-73
2022/05/16 20:45:28;;;;;;;9.57;6.90;;;;;;;;;;5026775;28;20241;-73
2022/05/16 20:47:54;;;;;;;6.32;5.57;;;;;;;;;;5028454;28;20570;-73
2022/05/16 20:50:21;;;;;;;7.43;6.13;;;;;;;;;;5027591;28;20190;-73
2022/05/16 20:52:48;;;;;;;13.63;6.72;;;;;;;;;;5027948;28;20221;-72
2022/05/16 20:55:16;;;;;;;7.82;6.88;;;;;;;;;;5027211;28;20233;-72
2022/05/16 20:57:42;;;;;;;7.03;6.32;;;;;;;;;;5027049;28;20211;-72
2022/05/16 21:00:11;;;;;;;7.63;6.90;;;;;;;;;;5027607;28;21068;-74
2022/05/16 21:02:37;;;;;;;7.45;6.75;;;;;;;;;;5025324;28;20183;-72
2022/05/16 21:05:04;;;;;;;7.13;6.43;;;;;;;;;;5027039;28;20182;-72
2022/05/16 21:07:30;;;;;;;7.15;6.47;;;;;;;;;;5027899;28;21033;-72
2022/05/16 21:09:56;;;;;;;8.10;6.20;;;;;;;;;;5028299;28;20210;-72
2022/05/16 21:12:23;;;;;;;8.27;6.53;;;;;;;;;;5027696;28;20183;-72
2022/05/16 21:14:49;;;;;;;8.15;6.88;;;;;;;;;;5025303;28;20197;-72
2022/05/16 21:17:15;;;;;;;7.03;6.28;;;;;;;;;;5026845;28;20292;-72
2022/05/16 21:19:41;;;;;;;8.02;7.20;;;;;;;;;;5027417;28;20187;-73
2022/05/16 21:22:07;;;;;;;8.35;7.00;;;;;;;;;;5027071;28;20293;-72
2022/05/16 21:24:34;;;;;;;8.07;7.28;;;;;;;;;;5027596;28;20190;-72
2022/05/16 21:27:01;;;;;;;8.88;8.05;;;;;;;;;;5026093;28;20214;-73
2022/05/16 21:29:27;;;;;;;9.27;8.30;;;;;;;;;;5027233;28;20235;-74
2022/05/16 21:31:53;;;;;;;8.73;7.60;;;;;;;;;;5026806;28;20178;-73
2022/05/16 21:34:19;;;;;;;11.57;10.18;;;;;;;;;;5026571;28;20187;-73
2022/05/16 21:36:46;;;;;;;13.63;10.63;;;;;;;;;;5026083;28;20206;-73
2022/05/16 21:39:12;;;;;;;15.07;12.30;;;;;;;;;;5026982;28;20186;-73
2022/05/16 21:41:38;;;;;;;11.95;10.35;;;;;;;;;;5026731;28;20199;-72
2022/05/16 21:46:49;;;;;;;12.82;11.35;;;;;;;;;;5025163;28;20209;-72
2022/05/16 21:49:15;;;;;;;11.80;10.70;;;;;;;;;;5026116;28;20222;-73
2022/05/16 21:51:42;;;;;;;14.23;12.60;;;;;;;;;;5025540;28;20219;-72
2022/05/16 21:54:09;;;;;;;12.77;11.32;;;;;;;;;;5026729;28;20305;-72
2022/05/16 21:56:37;;;;;;;12.38;11.18;;;;;;;;;;5025294;28;20171;-73
2022/05/16 21:59:03;;;;;;;13.38;12.07;;;;;;;;;;5026476;28;20186;-72
2022/05/16 22:01:29;;;;;;;14.43;12.73;;;;;;;;;;5026312;28;20175;-71
2022/05/16 22:03:55;;;;;;;12.18;10.10;;;;;;;;;;5026914;28;20187;-71
2022/05/16 22:06:23;;;;;;;9.00;8.07;;;;;;;;;;5024171;28;20190;-72
2022/05/16 22:08:50;;;;;;;8.20;7.45;;;;;;;;;;5027168;28;20249;-70
2022/05/16 22:11:17;;;;;;;5.72;5.10;;;;;;;;;;5026007;28;20194;-71
2022/05/16 22:13:43;;;;;;;3.92;3.58;;;;;;;;;;5026829;28;20179;-73
2022/05/16 22:16:09;;;;;;;3.70;3.38;;;;;;;;;;5025354;28;20205;-72
2022/05/16 22:18:35;;;;;;;3.50;2.80;;;;;;;;;;5026506;28;20230;-73
2022/05/16 22:21:01;;;;;;;3.20;2.90;;;;;;;;;;5026050;28;20655;-73
2022/05/16 22:23:27;;;;;;;3.75;2.80;;;;;;;;;;5024940;28;20183;-73
2022/05/16 22:25:53;;;;;;;3.03;2.50;;;;;;;;;;5025007;28;20236;-73
2022/05/16 22:28:20;;;;;;;3.30;3.00;;;;;;;;;;5026173;28;20198;-72
2022/05/16 22:30:46;;;;;;;2.92;2.72;;;;;;;;;;5025295;28;20203;-73
2022/05/16 22:33:13;;;;;;;4.55;3.13;;;;;;;;;;5026372;28;20179;-72
2022/05/16 22:35:39;;;;;;;2.53;2.33;;;;;;;;;;5024878;28;20690;-72
2022/05/16 22:38:05;;;;;;;3.15;2.85;;;;;;;;;;5025879;28;20198;-72
2022/05/16 22:40:31;;;;;;;2.47;2.28;;;;;;;;;;5025949;28;20626;-71
2022/05/16 22:42:58;;;;;;;2.55;2.35;;;;;;;;;;5023878;28;20191;-72
2022/05/16 22:45:24;;;;;;;2.78;2.58;;;;;;;;;;5024758;28;20190;-72
2022/05/16 22:47:50;;;;;;;3.50;2.60;;;;;;;;;;5025710;28;20234;-72
2022/05/16 22:50:17;;;;;;;2.90;2.60;;;;;;;;;;5024716;28;20202;-73
2022/05/16 22:52:43;;;;;;;3.22;2.72;;;;;;;;;;5024159;28;20593;-72
2022/05/16 22:55:10;;;;;;;2.92;2.72;;;;;;;;;;5023668;28;20198;-72
2022/05/16 22:57:36;;;;;;;2.90;2.70;;;;;;;;;;5025459;28;20198;-73
2022/05/16 23:00:02;;;;;;;4.32;3.25;;;;;;;;;;5024962;28;20179;-71
2022/05/16 23:05:13;;;;;;;4.38;3.97;;;;;;;;;;5024800;28;20193;-72
2022/05/16 23:07:40;;;;;;;4.97;4.47;;;;;;;;;;5024221;28;20693;-72
2022/05/16 23:10:07;;;;;;;7.20;6.18;;;;;;;;;;5024796;28;20321;-73
2022/05/16 23:12:34;;;;;;;6.60;6.00;;;;;;;;;;5025708;28;20201;-73
2022/05/16 23:15:00;;;;;;;6.85;5.80;;;;;;;;;;5024191;28;20195;-73
2022/05/16 23:17:26;;;;;;;7.47;5.97;;;;;;;;;;5024976;28;20191;-74
2022/05/16 23:19:52;;;;;;;5.70;5.10;;;;;;;;;;5025184;28;20271;-73
2022/05/16 23:22:18;;;;;;;6.38;5.50;;;;;;;;;;5025454;28;20207;-74
2022/05/16 23:24:44;;;;;;;6.10;5.43;;;;;;;;;;5025155;28;20638;-72
2022/05/16 23:27:10;;;;;;;6.80;5.93;;;;;;;;;;5024107;28;20679;-73
2022/05/16 23:29:36;;;;;;;6.47;5.82;;;;;;;;;;5025221;28;20264;-72
2022/05/16 23:32:03;;;;;;;7.13;6.40;;;;;;;;;;5025180;28;20183;-73
2022/05/16 23:34:29;;;;;;;8.55;6.43;;;;;;;;;;5025199;28;20179;-71
2022/05/16 23:36:56;;;;;;;6.82;6.22;;;;;;;;;;5024094;28;20194;-73
2022/05/16 23:39:22;;;;;;;7.43;6.38;;;;;;;;;;5024596;28;20191;-73
2022/05/16 23:41:48;;;;;;;7.43;6.60;;;;;;;;;;5025012;28;20202;-72
2022/05/16 23:44:14;;;;;;;7.10;6.40;;;;;;;;;;5020882;28;20182;-72
2022/05/16 23:46:40;;;;;;;7.07;6.10;;;;;;;;;;5023764;28;20218;-72
2022/05/16 23:49:07;;;;;;;6.70;5.65;;;;;;;;;;5024727;28;20182;-72
2022/05/16 23:51:33;;;;;;;7.22;4.75;;;;;;;;;;5023475;28;20606;-73
2022/05/16 23:54:00;;;;;;;4.90;4.47;;;;;;;;;;5023371;28;20175;-73
2022/05/16 23:56:26;;;;;;;6.30;4.97;;;;;;;;;;5023440;28;20647;-74
2022/05/16 23:58:52;;;;;;;6.10;5.45;;;;;;;;;;5025002;28;20188;-72
